sensor_id;sensor_type;location;lat;lon;timestamp;P1;durP1;ratioP1;P2;durP2;ratioP2
46507;SDS011;32223;53.654;10.014;2022-09-30T00:02:21;6.57;;;4.63;;
46507;SDS011;32223;53.654;10.014;2022-09-30T00:04:47;5.25;;;3.95;;
46507;SDS011;32223;53.654;10.014;2022-09-30T00:07:13;7.35;;;5.50;;
46507;SDS011;32223;53.654;10.014;2022-09-30T00:09:39;6.45;;;4.85;;
46507;SDS011;32223;53.654;10.014;2022-09-30T00:12:05;7.13;;;5.03;;
46507;SDS011;32223;53.654;10.014;2022-09-30T00:14:31;6.72;;;4.80;;
46507;SDS011;32223;53.654;10.014;2022-09-30T00:16:56;8.73;;;5.07;;
46507;SDS011;32223;53.654;10.014;2022-09-30T00:19:22;7.22;;;4.72;;
46507;SDS011;32223;53.654;10.014;2022-09-30T00:21:47;7.93;;;5.18;;
46507;SDS011;32223;53.654;10.014;2022-09-30T00:24:13;6.82;;;5.95;;
46507;SDS011;32223;53.654;10.014;2022-09-30T00:26:39;7.47;;;5.30;;
46507;SDS011;32223;53.654;10.014;2022-09-30T00:29:05;7.03;;;5.18;;
46507;SDS011;32223;53.654;10.014;2022-09-30T00:31:31;8.52;;;5.20;;
46507;SDS011;32223;53.654;10.014;2022-09-30T00:33:58;10.77;;;5.50;;
46507;SDS011;32223;53.654;10.014;2022-09-30T00:39:23;7.88;;;5.65;;
46507;SDS011;32223;53.654;10.014;2022-09-30T00:41:51;6.72;;;5.82;;
46507;SDS011;32223;53.654;10.014;2022-09-30T00:47:26;9.35;;;6.10;;
46507;SDS011;32223;53.654;10.014;2022-09-30T00:49:55;9.45;;;6.50;;
46507;SDS011;32223;53.654;10.014;2022-09-30T00:52:24;8.48;;;6.40;;
46507;SDS011;32223;53.654;10.014;2022-09-30T00:54:50;9.93;;;6.30;;
46507;SDS011;32223;53.654;10.014;2022-09-30T00:57:17;12.60;;;6.55;;
46507;SDS011;32223;53.654;10.014;2022-09-30T00:59:44;9.98;;;6.00;;
46507;SDS011;32223;53.654;10.014;2022-09-30T01:02:14;9.52;;;6.72;;
46507;SDS011;32223;53.654;10.014;2022-09-30T01:04:39;8.82;;;6.80;;
46507;SDS011;32223;53.654;10.014;2022-09-30T01:07:07;8.48;;;6.28;;
46507;SDS011;32223;53.654;10.014;2022-09-30T01:09:33;8.02;;;5.88;;
46507;SDS011;32223;53.654;10.014;2022-09-30T01:12:02;9.75;;;7.03;;
46507;SDS011;32223;53.654;10.014;2022-09-30T01:14:34;11.18;;;7.35;;
46507;SDS011;32223;53.654;10.014;2022-09-30T01:17:04;10.15;;;7.45;;
46507;SDS011;32223;53.654;10.014;2022-09-30T01:19:49;11.75;;;7.63;;
46507;SDS011;32223;53.654;10.014;2022-09-30T01:33:14;12.73;;;7.30;;
46507;SDS011;32223;53.654;10.014;2022-09-30T01:35:53;10.68;;;7.15;;
46507;SDS011;32223;53.654;10.014;2022-09-30T01:38:26;8.55;;;6.80;;
46507;SDS011;32223;53.654;10.014;2022-09-30T01:43:34;10.93;;;6.57;;
46507;SDS011;32223;53.654;10.014;2022-09-30T01:46:19;11.35;;;7.65;;
46507;SDS011;32223;53.654;10.014;2022-09-30T01:54:16;11.82;;;7.95;;
46507;SDS011;32223;53.654;10.014;2022-09-30T01:56:52;11.43;;;8.02;;
46507;SDS011;32223;53.654;10.014;2022-09-30T01:59:36;11.30;;;8.40;;
46507;SDS011;32223;53.654;10.014;2022-09-30T02:02:25;13.30;;;8.48;;
46507;SDS011;32223;53.654;10.014;2022-09-30T02:07:59;12.93;;;8.80;;
46507;SDS011;32223;53.654;10.014;2022-09-30T02:10:36;11.27;;;8.90;;
46507;SDS011;32223;53.654;10.014;2022-09-30T02:13:11;12.70;;;9.00;;
46507;SDS011;32223;53.654;10.014;2022-09-30T02:15:43;10.77;;;8.30;;
46507;SDS011;32223;53.654;10.014;2022-09-30T02:18:19;12.48;;;9.23;;
46507;SDS011;32223;53.654;10.014;2022-09-30T02:20:53;13.43;;;9.40;;
46507;SDS011;32223;53.654;10.014;2022-09-30T02:23:28;13.05;;;9.25;;
46507;SDS011;32223;53.654;10.014;2022-09-30T02:25:58;14.00;;;9.30;;
46507;SDS011;32223;53.654;10.014;2022-09-30T02:28:53;14.00;;;9.48;;
46507;SDS011;32223;53.654;10.014;2022-09-30T02:31:28;14.82;;;9.20;;
46507;SDS011;32223;53.654;10.014;2022-09-30T02:36:31;15.82;;;10.70;;
46507;SDS011;32223;53.654;10.014;2022-09-30T02:39:09;17.05;;;10.32;;
46507;SDS011;32223;53.654;10.014;2022-09-30T02:44:11;14.48;;;9.15;;
46507;SDS011;32223;53.654;10.014;2022-09-30T02:49:30;15.60;;;10.70;;
46507;SDS011;32223;53.654;10.014;2022-09-30T02:52:08;16.48;;;11.52;;
46507;SDS011;32223;53.654;10.014;2022-09-30T03:00:17;13.98;;;11.07;;
46507;SDS011;32223;53.654;10.014;2022-09-30T03:02:43;15.43;;;10.80;;
46507;SDS011;32223;53.654;10.014;2022-09-30T03:05:09;13.98;;;10.15;;
46507;SDS011;32223;53.654;10.014;2022-09-30T03:07:35;15.25;;;11.07;;
46507;SDS011;32223;53.654;10.014;2022-09-30T03:10:10;14.98;;;11.38;;
46507;SDS011;32223;53.654;10.014;2022-09-30T03:30:05;14.20;;;10.68;;
46507;SDS011;32223;53.654;10.014;2022-09-30T03:32:49;13.35;;;9.63;;
46507;SDS011;32223;53.654;10.014;2022-09-30T03:40:58;17.70;;;10.27;;
46507;SDS011;32223;53.654;10.014;2022-09-30T03:43:34;14.52;;;9.77;;
46507;SDS011;32223;53.654;10.014;2022-09-30T03:48:51;11.77;;;8.48;;
46507;SDS011;32223;53.654;10.014;2022-09-30T03:51:20;11.88;;;8.88;;
46507;SDS011;32223;53.654;10.014;2022-09-30T03:53:48;15.18;;;9.38;;
46507;SDS011;32223;53.654;10.014;2022-09-30T03:56:15;13.00;;;7.97;;
46507;SDS011;32223;53.654;10.014;2022-09-30T03:58:55;14.40;;;10.68;;
46507;SDS011;32223;53.654;10.014;2022-09-30T04:01:22;11.60;;;8.77;;
46507;SDS011;32223;53.654;10.014;2022-09-30T04:03:48;11.00;;;8.45;;
46507;SDS011;32223;53.654;10.014;2022-09-30T04:06:18;12.43;;;8.63;;
46507;SDS011;32223;53.654;10.014;2022-09-30T04:08:45;10.50;;;7.97;;
46507;SDS011;32223;53.654;10.014;2022-09-30T04:11:11;14.75;;;9.18;;
46507;SDS011;32223;53.654;10.014;2022-09-30T04:13:37;13.75;;;8.13;;
46507;SDS011;32223;53.654;10.014;2022-09-30T04:16:03;12.85;;;8.18;;
46507;SDS011;32223;53.654;10.014;2022-09-30T04:18:30;13.85;;;8.50;;
46507;SDS011;32223;53.654;10.014;2022-09-30T04:20:56;11.52;;;9.05;;
46507;SDS011;32223;53.654;10.014;2022-09-30T04:23:23;11.98;;;8.20;;
46507;SDS011;32223;53.654;10.014;2022-09-30T04:25:55;24.83;;;18.10;;
46507;SDS011;32223;53.654;10.014;2022-09-30T04:28:21;19.30;;;13.18;;
46507;SDS011;32223;53.654;10.014;2022-09-30T04:30:47;14.77;;;10.45;;
46507;SDS011;32223;53.654;10.014;2022-09-30T04:33:13;14.82;;;10.35;;
46507;SDS011;32223;53.654;10.014;2022-09-30T04:35:38;15.00;;;10.13;;
46507;SDS011;32223;53.654;10.014;2022-09-30T04:38:04;16.95;;;8.98;;
46507;SDS011;32223;53.654;10.014;2022-09-30T04:40:34;13.10;;;10.02;;
46507;SDS011;32223;53.654;10.014;2022-09-30T04:43:01;14.02;;;10.02;;
46507;SDS011;32223;53.654;10.014;2022-09-30T04:45:27;15.65;;;10.15;;
46507;SDS011;32223;53.654;10.014;2022-09-30T04:47:54;13.65;;;10.40;;
46507;SDS011;32223;53.654;10.014;2022-09-30T04:50:19;15.15;;;11.00;;
46507;SDS011;32223;53.654;10.014;2022-09-30T04:52:45;16.10;;;10.93;;
46507;SDS011;32223;53.654;10.014;2022-09-30T04:55:11;18.27;;;12.02;;
46507;SDS011;32223;53.654;10.014;2022-09-30T04:57:37;16.88;;;11.15;;
46507;SDS011;32223;53.654;10.014;2022-09-30T05:00:03;15.77;;;11.38;;
46507;SDS011;32223;53.654;10.014;2022-09-30T05:02:30;15.82;;;10.88;;
46507;SDS011;32223;53.654;10.014;2022-09-30T05:04:56;13.95;;;11.32;;
46507;SDS011;32223;53.654;10.014;2022-09-30T05:07:21;16.67;;;10.82;;
46507;SDS011;32223;53.654;10.014;2022-09-30T05:09:47;15.75;;;11.32;;
46507;SDS011;32223;53.654;10.014;2022-09-30T05:12:13;20.20;;;11.32;;
46507;SDS011;32223;53.654;10.014;2022-09-30T05:14:39;16.88;;;11.65;;
46507;SDS011;32223;53.654;10.014;2022-09-30T05:17:05;17.02;;;12.15;;
46507;SDS011;32223;53.654;10.014;2022-09-30T05:19:31;15.95;;;11.45;;
46507;SDS011;32223;53.654;10.014;2022-09-30T05:21:56;15.73;;;10.95;;
46507;SDS011;32223;53.654;10.014;2022-09-30T05:24:22;15.80;;;11.88;;
46507;SDS011;32223;53.654;10.014;2022-09-30T05:26:48;17.90;;;12.35;;
46507;SDS011;32223;53.654;10.014;2022-09-30T05:29:14;16.67;;;12.05;;
46507;SDS011;32223;53.654;10.014;2022-09-30T05:31:40;19.27;;;13.90;;
46507;SDS011;32223;53.654;10.014;2022-09-30T05:34:06;16.75;;;12.82;;
46507;SDS011;32223;53.654;10.014;2022-09-30T05:36:32;22.15;;;13.35;;
46507;SDS011;32223;53.654;10.014;2022-09-30T05:38:57;20.33;;;13.00;;
46507;SDS011;32223;53.654;10.014;2022-09-30T05:41:23;16.90;;;12.27;;
46507;SDS011;32223;53.654;10.014;2022-09-30T05:43:48;19.67;;;12.82;;
46507;SDS011;32223;53.654;10.014;2022-09-30T05:46:15;18.02;;;11.52;;
46507;SDS011;32223;53.654;10.014;2022-09-30T05:48:42;14.55;;;11.23;;
46507;SDS011;32223;53.654;10.014;2022-09-30T05:51:08;15.65;;;11.02;;
46507;SDS011;32223;53.654;10.014;2022-09-30T05:53:34;17.38;;;12.45;;
46507;SDS011;32223;53.654;10.014;2022-09-30T05:56:05;17.13;;;11.85;;
46507;SDS011;32223;53.654;10.014;2022-09-30T05:58:32;18.67;;;13.35;;
46507;SDS011;32223;53.654;10.014;2022-09-30T06:01:02;15.55;;;11.98;;
46507;SDS011;32223;53.654;10.014;2022-09-30T06:03:31;18.95;;;12.10;;
46507;SDS011;32223;53.654;10.014;2022-09-30T06:05:56;17.23;;;12.50;;
46507;SDS011;32223;53.654;10.014;2022-09-30T06:08:22;16.95;;;13.02;;
46507;SDS011;32223;53.654;10.014;2022-09-30T06:10:48;18.33;;;13.60;;
46507;SDS011;32223;53.654;10.014;2022-09-30T06:13:14;20.25;;;13.98;;
46507;SDS011;32223;53.654;10.014;2022-09-30T06:15:41;19.23;;;14.02;;
46507;SDS011;32223;53.654;10.014;2022-09-30T06:18:07;21.42;;;15.35;;
46507;SDS011;32223;53.654;10.014;2022-09-30T06:20:33;19.30;;;14.15;;
46507;SDS011;32223;53.654;10.014;2022-09-30T06:23:00;17.10;;;13.35;;
46507;SDS011;32223;53.654;10.014;2022-09-30T06:25:26;21.55;;;13.80;;
46507;SDS011;32223;53.654;10.014;2022-09-30T06:27:55;25.23;;;17.42;;
46507;SDS011;32223;53.654;10.014;2022-09-30T06:30:21;18.80;;;13.40;;
46507;SDS011;32223;53.654;10.014;2022-09-30T06:32:47;18.55;;;14.77;;
46507;SDS011;32223;53.654;10.014;2022-09-30T06:35:13;18.63;;;14.30;;
46507;SDS011;32223;53.654;10.014;2022-09-30T06:37:38;20.38;;;15.38;;
46507;SDS011;32223;53.654;10.014;2022-09-30T06:40:06;24.08;;;15.68;;
46507;SDS011;32223;53.654;10.014;2022-09-30T06:42:32;21.30;;;14.82;;
46507;SDS011;32223;53.654;10.014;2022-09-30T06:44:58;19.65;;;13.80;;
46507;SDS011;32223;53.654;10.014;2022-09-30T06:47:24;19.00;;;14.30;;
46507;SDS011;32223;53.654;10.014;2022-09-30T06:49:50;20.10;;;15.38;;
46507;SDS011;32223;53.654;10.014;2022-09-30T06:52:17;19.67;;;13.20;;
46507;SDS011;32223;53.654;10.014;2022-09-30T06:54:43;21.98;;;13.20;;
46507;SDS011;32223;53.654;10.014;2022-09-30T06:57:09;18.02;;;12.85;;
46507;SDS011;32223;53.654;10.014;2022-09-30T06:59:35;18.98;;;13.85;;
46507;SDS011;32223;53.654;10.014;2022-09-30T07:02:00;19.58;;;13.77;;
46507;SDS011;32223;53.654;10.014;2022-09-30T07:04:26;19.17;;;13.73;;
46507;SDS011;32223;53.654;10.014;2022-09-30T07:06:51;21.13;;;14.63;;
46507;SDS011;32223;53.654;10.014;2022-09-30T07:09:18;20.38;;;14.05;;
46507;SDS011;32223;53.654;10.014;2022-09-30T07:11:44;18.63;;;13.73;;
46507;SDS011;32223;53.654;10.014;2022-09-30T07:14:10;23.83;;;16.90;;
46507;SDS011;32223;53.654;10.014;2022-09-30T07:16:37;20.77;;;15.63;;
46507;SDS011;32223;53.654;10.014;2022-09-30T07:19:03;46.90;;;31.58;;
46507;SDS011;32223;53.654;10.014;2022-09-30T07:21:30;44.15;;;29.60;;
46507;SDS011;32223;53.654;10.014;2022-09-30T07:23:57;21.58;;;15.32;;
46507;SDS011;32223;53.654;10.014;2022-09-30T07:26:24;16.77;;;13.30;;
46507;SDS011;32223;53.654;10.014;2022-09-30T07:28:50;14.80;;;10.05;;
46507;SDS011;32223;53.654;10.014;2022-09-30T07:31:23;14.27;;;9.20;;
46507;SDS011;32223;53.654;10.014;2022-09-30T07:33:50;12.23;;;9.63;;
46507;SDS011;32223;53.654;10.014;2022-09-30T07:36:17;15.18;;;8.93;;
46507;SDS011;32223;53.654;10.014;2022-09-30T07:38:47;10.95;;;8.75;;
46507;SDS011;32223;53.654;10.014;2022-09-30T07:41:20;11.50;;;8.50;;
46507;SDS011;32223;53.654;10.014;2022-09-30T07:43:50;9.82;;;8.40;;
46507;SDS011;32223;53.654;10.014;2022-09-30T07:46:24;11.38;;;8.30;;
46507;SDS011;32223;53.654;10.014;2022-09-30T07:48:53;11.15;;;8.18;;
46507;SDS011;32223;53.654;10.014;2022-09-30T07:53:55;13.38;;;7.97;;
46507;SDS011;32223;53.654;10.014;2022-09-30T07:56:25;11.68;;;8.40;;
46507;SDS011;32223;53.654;10.014;2022-09-30T07:58:52;12.43;;;8.75;;
46507;SDS011;32223;53.654;10.014;2022-09-30T08:01:23;9.73;;;7.25;;
46507;SDS011;32223;53.654;10.014;2022-09-30T08:03:54;8.80;;;6.40;;
46507;SDS011;32223;53.654;10.014;2022-09-30T08:06:22;11.18;;;7.35;;
46507;SDS011;32223;53.654;10.014;2022-09-30T08:08:50;9.23;;;7.20;;
46507;SDS011;32223;53.654;10.014;2022-09-30T08:11:17;8.73;;;5.80;;
46507;SDS011;32223;53.654;10.014;2022-09-30T08:13:43;9.25;;;5.85;;
46507;SDS011;32223;53.654;10.014;2022-09-30T08:16:08;8.00;;;6.00;;
46507;SDS011;32223;53.654;10.014;2022-09-30T08:18:34;6.95;;;5.45;;
46507;SDS011;32223;53.654;10.014;2022-09-30T08:21:03;10.30;;;5.50;;
46507;SDS011;32223;53.654;10.014;2022-09-30T08:23:30;7.88;;;5.30;;
46507;SDS011;32223;53.654;10.014;2022-09-30T08:26:03;8.68;;;5.47;;
46507;SDS011;32223;53.654;10.014;2022-09-30T08:28:30;10.18;;;5.72;;
46507;SDS011;32223;53.654;10.014;2022-09-30T08:31:09;6.30;;;4.90;;
46507;SDS011;32223;53.654;10.014;2022-09-30T08:33:36;7.72;;;5.03;;
46507;SDS011;32223;53.654;10.014;2022-09-30T08:36:06;5.82;;;4.45;;
46507;SDS011;32223;53.654;10.014;2022-09-30T08:38:33;7.20;;;5.20;;
46507;SDS011;32223;53.654;10.014;2022-09-30T08:41:10;6.03;;;4.00;;
46507;SDS011;32223;53.654;10.014;2022-09-30T08:46:42;4.57;;;3.60;;
46507;SDS011;32223;53.654;10.014;2022-09-30T08:51:51;8.40;;;3.80;;
46507;SDS011;32223;53.654;10.014;2022-09-30T08:54:19;9.38;;;5.47;;
46507;SDS011;32223;53.654;10.014;2022-09-30T08:56:48;9.80;;;4.20;;
46507;SDS011;32223;53.654;10.014;2022-09-30T08:59:20;9.88;;;6.68;;
46507;SDS011;32223;53.654;10.014;2022-09-30T09:02:01;14.07;;;8.32;;
46507;SDS011;32223;53.654;10.014;2022-09-30T09:04:49;10.77;;;7.05;;
46507;SDS011;32223;53.654;10.014;2022-09-30T09:12:58;5.70;;;3.30;;
46507;SDS011;32223;53.654;10.014;2022-09-30T09:21:29;5.60;;;3.65;;
46507;SDS011;32223;53.654;10.014;2022-09-30T09:24:15;6.43;;;3.13;;
46507;SDS011;32223;53.654;10.014;2022-09-30T09:26:44;6.65;;;3.33;;
46507;SDS011;32223;53.654;10.014;2022-09-30T09:32:12;4.85;;;3.03;;
46507;SDS011;32223;53.654;10.014;2022-09-30T09:34:40;9.25;;;3.50;;
46507;SDS011;32223;53.654;10.014;2022-09-30T09:40:28;3.78;;;2.80;;
46507;SDS011;32223;53.654;10.014;2022-09-30T09:48:36;10.98;;;4.35;;
46507;SDS011;32223;53.654;10.014;2022-09-30T09:51:03;12.35;;;7.20;;
46507;SDS011;32223;53.654;10.014;2022-09-30T09:53:49;6.15;;;3.30;;
46507;SDS011;32223;53.654;10.014;2022-09-30T09:56:20;7.03;;;3.30;;
46507;SDS011;32223;53.654;10.014;2022-09-30T09:59:06;5.03;;;3.08;;
46507;SDS011;32223;53.654;10.014;2022-09-30T10:01:40;5.65;;;2.90;;
46507;SDS011;32223;53.654;10.014;2022-09-30T10:04:14;5.82;;;3.00;;
46507;SDS011;32223;53.654;10.014;2022-09-30T10:17:16;6.07;;;2.45;;
46507;SDS011;32223;53.654;10.014;2022-09-30T10:19:48;5.40;;;2.72;;
46507;SDS011;32223;53.654;10.014;2022-09-30T10:22:17;6.15;;;2.45;;
46507;SDS011;32223;53.654;10.014;2022-09-30T10:24:48;7.20;;;2.15;;
46507;SDS011;32223;53.654;10.014;2022-09-30T10:27:31;5.38;;;2.35;;
46507;SDS011;32223;53.654;10.014;2022-09-30T10:29:58;3.55;;;2.10;;
46507;SDS011;32223;53.654;10.014;2022-09-30T10:32:24;4.10;;;2.90;;
46507;SDS011;32223;53.654;10.014;2022-09-30T10:34:54;5.10;;;3.08;;
46507;SDS011;32223;53.654;10.014;2022-09-30T10:37:26;4.50;;;2.47;;
46507;SDS011;32223;53.654;10.014;2022-09-30T10:40:03;3.72;;;2.63;;
46507;SDS011;32223;53.654;10.014;2022-09-30T10:42:33;11.73;;;5.70;;
46507;SDS011;32223;53.654;10.014;2022-09-30T10:47:34;6.05;;;3.08;;
46507;SDS011;32223;53.654;10.014;2022-09-30T10:50:12;5.32;;;2.90;;
46507;SDS011;32223;53.654;10.014;2022-09-30T10:52:54;4.60;;;2.42;;
46507;SDS011;32223;53.654;10.014;2022-09-30T11:01:19;4.32;;;2.22;;
46507;SDS011;32223;53.654;10.014;2022-09-30T11:04:10;3.53;;;2.13;;
46507;SDS011;32223;53.654;10.014;2022-09-30T11:06:39;3.00;;;2.17;;
46507;SDS011;32223;53.654;10.014;2022-09-30T11:11:41;3.53;;;2.13;;
46507;SDS011;32223;53.654;10.014;2022-09-30T11:14:23;3.30;;;2.05;;
46507;SDS011;32223;53.654;10.014;2022-09-30T11:24:47;3.58;;;1.67;;
46507;SDS011;32223;53.654;10.014;2022-09-30T11:27:21;3.92;;;1.88;;
46507;SDS011;32223;53.654;10.014;2022-09-30T11:30:11;2.03;;;1.33;;
46507;SDS011;32223;53.654;10.014;2022-09-30T11:38:09;2.08;;;1.15;;
46507;SDS011;32223;53.654;10.014;2022-09-30T11:40:52;2.20;;;1.27;;
46507;SDS011;32223;53.654;10.014;2022-09-30T11:46:25;3.63;;;1.35;;
46507;SDS011;32223;53.654;10.014;2022-09-30T11:58:07;2.03;;;1.20;;
46507;SDS011;32223;53.654;10.014;2022-09-30T12:00:36;3.00;;;1.38;;
46507;SDS011;32223;53.654;10.014;2022-09-30T12:03:06;4.10;;;1.42;;
46507;SDS011;32223;53.654;10.014;2022-09-30T12:08:49;3.22;;;2.10;;
46507;SDS011;32223;53.654;10.014;2022-09-30T12:13:56;3.53;;;1.58;;
46507;SDS011;32223;53.654;10.014;2022-09-30T12:16:28;3.42;;;1.90;;
46507;SDS011;32223;53.654;10.014;2022-09-30T12:19:01;3.88;;;1.60;;
46507;SDS011;32223;53.654;10.014;2022-09-30T12:22:10;3.13;;;1.73;;
46507;SDS011;32223;53.654;10.014;2022-09-30T12:24:40;1.70;;;1.38;;
46507;SDS011;32223;53.654;10.014;2022-09-30T12:27:14;1.90;;;1.05;;
46507;SDS011;32223;53.654;10.014;2022-09-30T12:49:10;2.83;;;1.63;;
46507;SDS011;32223;53.654;10.014;2022-09-30T12:51:42;1.98;;;1.23;;
46507;SDS011;32223;53.654;10.014;2022-09-30T12:54:17;2.33;;;1.67;;
46507;SDS011;32223;53.654;10.014;2022-09-30T12:56:55;2.58;;;1.50;;
46507;SDS011;32223;53.654;10.014;2022-09-30T12:59:38;3.58;;;1.70;;
46507;SDS011;32223;53.654;10.014;2022-09-30T13:02:30;3.33;;;2.03;;
46507;SDS011;32223;53.654;10.014;2022-09-30T13:15:44;4.18;;;2.53;;
46507;SDS011;32223;53.654;10.014;2022-09-30T13:31:25;3.75;;;2.33;;
46507;SDS011;32223;53.654;10.014;2022-09-30T13:36:26;2.95;;;1.80;;
46507;SDS011;32223;53.654;10.014;2022-09-30T13:39:05;3.72;;;1.83;;
46507;SDS011;32223;53.654;10.014;2022-09-30T13:41:45;2.58;;;1.98;;
46507;SDS011;32223;53.654;10.014;2022-09-30T13:44:18;2.63;;;1.70;;
46507;SDS011;32223;53.654;10.014;2022-09-30T13:46:50;3.00;;;1.73;;
46507;SDS011;32223;53.654;10.014;2022-09-30T13:49:21;3.75;;;1.70;;
46507;SDS011;32223;53.654;10.014;2022-09-30T13:51:50;3.33;;;1.98;;
46507;SDS011;32223;53.654;10.014;2022-09-30T13:54:31;3.03;;;1.85;;
46507;SDS011;32223;53.654;10.014;2022-09-30T13:57:02;2.35;;;1.52;;
46507;SDS011;32223;53.654;10.014;2022-09-30T14:02:28;2.83;;;2.00;;
46507;SDS011;32223;53.654;10.014;2022-09-30T14:14:02;6.25;;;2.92;;
46507;SDS011;32223;53.654;10.014;2022-09-30T14:16:43;3.65;;;2.50;;
46507;SDS011;32223;53.654;10.014;2022-09-30T14:22:07;4.13;;;2.63;;
46507;SDS011;32223;53.654;10.014;2022-09-30T14:24:35;3.90;;;2.60;;
46507;SDS011;32223;53.654;10.014;2022-09-30T14:30:03;7.47;;;3.10;;
46507;SDS011;32223;53.654;10.014;2022-09-30T14:32:34;4.07;;;2.63;;
46507;SDS011;32223;53.654;10.014;2022-09-30T14:35:06;4.72;;;2.95;;
46507;SDS011;32223;53.654;10.014;2022-09-30T14:37:47;3.40;;;2.70;;
46507;SDS011;32223;53.654;10.014;2022-09-30T14:40:25;6.07;;;3.00;;
46507;SDS011;32223;53.654;10.014;2022-09-30T14:42:54;4.35;;;3.25;;
46507;SDS011;32223;53.654;10.014;2022-09-30T14:45:27;6.88;;;2.97;;
46507;SDS011;32223;53.654;10.014;2022-09-30T14:47:56;5.30;;;2.92;;
46507;SDS011;32223;53.654;10.014;2022-09-30T14:50:27;4.13;;;3.10;;
46507;SDS011;32223;53.654;10.014;2022-09-30T14:52:58;5.40;;;3.38;;
46507;SDS011;32223;53.654;10.014;2022-09-30T14:55:30;5.32;;;3.42;;
46507;SDS011;32223;53.654;10.014;2022-09-30T15:00:56;6.78;;;3.30;;
46507;SDS011;32223;53.654;10.014;2022-09-30T15:03:23;9.77;;;6.18;;
46507;SDS011;32223;53.654;10.014;2022-09-30T15:05:49;4.43;;;3.05;;
46507;SDS011;32223;53.654;10.014;2022-09-30T15:08:18;9.18;;;3.58;;
46507;SDS011;32223;53.654;10.014;2022-09-30T15:10:49;6.78;;;2.90;;
46507;SDS011;32223;53.654;10.014;2022-09-30T15:13:18;7.28;;;3.10;;
46507;SDS011;32223;53.654;10.014;2022-09-30T15:15:48;5.60;;;3.20;;
46507;SDS011;32223;53.654;10.014;2022-09-30T15:18:33;4.63;;;3.03;;
46507;SDS011;32223;53.654;10.014;2022-09-30T15:21:09;4.43;;;3.55;;
46507;SDS011;32223;53.654;10.014;2022-09-30T15:23:39;3.35;;;2.75;;
46507;SDS011;32223;53.654;10.014;2022-09-30T15:26:08;4.85;;;3.53;;
46507;SDS011;32223;53.654;10.014;2022-09-30T15:28:35;5.18;;;2.78;;
46507;SDS011;32223;53.654;10.014;2022-09-30T15:31:02;3.67;;;2.67;;
46507;SDS011;32223;53.654;10.014;2022-09-30T15:33:29;5.18;;;2.95;;
46507;SDS011;32223;53.654;10.014;2022-09-30T15:36:05;5.32;;;2.88;;
46507;SDS011;32223;53.654;10.014;2022-09-30T15:38:35;5.63;;;3.17;;
46507;SDS011;32223;53.654;10.014;2022-09-30T15:41:06;6.25;;;4.18;;
46507;SDS011;32223;53.654;10.014;2022-09-30T15:48:50;5.78;;;3.33;;
46507;SDS011;32223;53.654;10.014;2022-09-30T15:53:54;5.13;;;3.30;;
46507;SDS011;32223;53.654;10.014;2022-09-30T15:56:29;4.85;;;2.92;;
46507;SDS011;32223;53.654;10.014;2022-09-30T16:04:08;4.32;;;3.17;;
46507;SDS011;32223;53.654;10.014;2022-09-30T16:14:31;5.47;;;3.75;;
46507;SDS011;32223;53.654;10.014;2022-09-30T16:17:04;3.67;;;2.75;;
46507;SDS011;32223;53.654;10.014;2022-09-30T16:19:30;6.57;;;3.83;;
46507;SDS011;32223;53.654;10.014;2022-09-30T16:21:57;5.10;;;3.60;;
46507;SDS011;32223;53.654;10.014;2022-09-30T16:26:57;5.55;;;3.60;;
46507;SDS011;32223;53.654;10.014;2022-09-30T16:29:39;9.35;;;4.50;;
46507;SDS011;32223;53.654;10.014;2022-09-30T16:32:05;5.82;;;4.10;;
46507;SDS011;32223;53.654;10.014;2022-09-30T16:34:33;8.00;;;4.50;;
46507;SDS011;32223;53.654;10.014;2022-09-30T16:37:13;5.65;;;3.70;;
46507;SDS011;32223;53.654;10.014;2022-09-30T16:39:42;7.85;;;3.63;;
46507;SDS011;32223;53.654;10.014;2022-09-30T16:42:10;6.60;;;3.67;;
46507;SDS011;32223;53.654;10.014;2022-09-30T16:44:38;4.75;;;3.33;;
46507;SDS011;32223;53.654;10.014;2022-09-30T16:47:03;5.60;;;4.00;;
46507;SDS011;32223;53.654;10.014;2022-09-30T16:49:29;5.55;;;3.92;;
46507;SDS011;32223;53.654;10.014;2022-09-30T16:51:55;6.43;;;3.65;;
46507;SDS011;32223;53.654;10.014;2022-09-30T16:54:20;7.00;;;4.30;;
46507;SDS011;32223;53.654;10.014;2022-09-30T16:56:46;5.78;;;3.55;;
46507;SDS011;32223;53.654;10.014;2022-09-30T16:59:14;7.05;;;3.55;;
46507;SDS011;32223;53.654;10.014;2022-09-30T17:01:41;6.97;;;3.53;;
46507;SDS011;32223;53.654;10.014;2022-09-30T17:04:07;6.35;;;3.50;;
46507;SDS011;32223;53.654;10.014;2022-09-30T17:06:34;5.85;;;3.50;;
46507;SDS011;32223;53.654;10.014;2022-09-30T17:09:01;5.97;;;3.67;;
46507;SDS011;32223;53.654;10.014;2022-09-30T17:11:28;5.82;;;3.78;;
46507;SDS011;32223;53.654;10.014;2022-09-30T17:13:56;6.18;;;4.05;;
46507;SDS011;32223;53.654;10.014;2022-09-30T17:16:26;5.22;;;3.65;;
46507;SDS011;32223;53.654;10.014;2022-09-30T17:18:52;5.68;;;3.50;;
46507;SDS011;32223;53.654;10.014;2022-09-30T17:21:19;7.13;;;3.78;;
46507;SDS011;32223;53.654;10.014;2022-09-30T17:23:46;7.88;;;5.00;;
46507;SDS011;32223;53.654;10.014;2022-09-30T17:26:12;6.45;;;4.20;;
46507;SDS011;32223;53.654;10.014;2022-09-30T17:28:38;6.47;;;4.55;;
46507;SDS011;32223;53.654;10.014;2022-09-30T17:31:04;6.95;;;4.20;;
46507;SDS011;32223;53.654;10.014;2022-09-30T17:33:32;26.60;;;16.80;;
46507;SDS011;32223;53.654;10.014;2022-09-30T17:36:01;11.07;;;7.88;;
46507;SDS011;32223;53.654;10.014;2022-09-30T17:38:31;10.63;;;4.95;;
46507;SDS011;32223;53.654;10.014;2022-09-30T17:40:58;7.38;;;4.80;;
46507;SDS011;32223;53.654;10.014;2022-09-30T17:43:42;9.50;;;6.50;;
46507;SDS011;32223;53.654;10.014;2022-09-30T17:46:11;10.73;;;7.47;;
46507;SDS011;32223;53.654;10.014;2022-09-30T17:48:42;12.07;;;8.30;;
46507;SDS011;32223;53.654;10.014;2022-09-30T17:51:12;11.60;;;5.32;;
46507;SDS011;32223;53.654;10.014;2022-09-30T17:53:40;7.80;;;5.05;;
46507;SDS011;32223;53.654;10.014;2022-09-30T17:56:16;6.63;;;4.28;;
46507;SDS011;32223;53.654;10.014;2022-09-30T17:58:45;6.68;;;4.63;;
46507;SDS011;32223;53.654;10.014;2022-09-30T18:01:13;7.60;;;4.68;;
46507;SDS011;32223;53.654;10.014;2022-09-30T18:03:39;6.80;;;4.13;;
46507;SDS011;32223;53.654;10.014;2022-09-30T18:06:05;6.05;;;4.00;;
46507;SDS011;32223;53.654;10.014;2022-09-30T18:08:31;6.20;;;4.75;;
46507;SDS011;32223;53.654;10.014;2022-09-30T18:10:58;6.82;;;4.82;;
46507;SDS011;32223;53.654;10.014;2022-09-30T18:13:25;8.63;;;4.78;;
46507;SDS011;32223;53.654;10.014;2022-09-30T18:15:51;7.40;;;4.78;;
46507;SDS011;32223;53.654;10.014;2022-09-30T18:18:17;11.13;;;5.38;;
46507;SDS011;32223;53.654;10.014;2022-09-30T18:20:44;9.98;;;5.50;;
46507;SDS011;32223;53.654;10.014;2022-09-30T18:23:14;7.07;;;5.43;;
46507;SDS011;32223;53.654;10.014;2022-09-30T18:25:42;9.27;;;5.20;;
46507;SDS011;32223;53.654;10.014;2022-09-30T18:28:09;9.43;;;4.88;;
46507;SDS011;32223;53.654;10.014;2022-09-30T18:30:36;7.65;;;4.53;;
46507;SDS011;32223;53.654;10.014;2022-09-30T18:33:03;9.77;;;5.40;;
46507;SDS011;32223;53.654;10.014;2022-09-30T18:35:32;18.60;;;9.73;;
46507;SDS011;32223;53.654;10.014;2022-09-30T18:37:59;9.45;;;6.47;;
46507;SDS011;32223;53.654;10.014;2022-09-30T18:40:26;8.48;;;5.30;;
46507;SDS011;32223;53.654;10.014;2022-09-30T18:42:54;7.88;;;5.07;;
46507;SDS011;32223;53.654;10.014;2022-09-30T18:45:24;6.97;;;4.90;;